Time;durP1;ratioP1;P1;durP2;ratioP2;P2;SDS_P1;SDS_P2;PMS_P1;PMS_P2;Temp;Humidity;BMP_temperature;BMP_pressure;BME280_temperature;BME280_humidity;BME280_pressure;Samples;Min_cycle;Max_cycle;Signal;HPM_P1;HPM_P2
2024/03/28 00:01:07;;;;;;;5.57;4.60;;;12.00;77.70;;;;;;4978986;28;20191;-39
2024/03/28 00:03:33;;;;;;;5.68;4.28;;;12.00;77.70;;;;;;4968588;28;20053;-39
2024/03/28 00:06:00;;;;;;;5.32;4.10;;;11.90;77.70;;;;;;4981134;28;20027;-39
2024/03/28 00:08:27;;;;;;;5.82;4.40;;;11.90;77.70;;;;;;4974202;28;20023;-38
2024/03/28 00:10:54;;;;;;;5.53;4.50;;;11.90;77.70;;;;;;4977071;28;20081;-39
2024/03/28 00:13:20;;;;;;;5.80;4.35;;;11.90;77.70;;;;;;4972758;28;20150;-35
2024/03/28 00:15:56;;;;;;;5.78;4.53;;;11.90;77.70;;;;;;4976205;28;20098;-39
2024/03/28 00:18:22;;;;;;;6.28;4.68;;;11.90;77.60;;;;;;4973793;28;20074;-37
2024/03/28 00:20:55;;;;;;;5.75;4.85;;;11.90;77.60;;;;;;4971903;28;20031;-38
2024/03/28 00:23:21;;;;;;;4.97;4.00;;;11.90;77.70;;;;;;4974995;28;20043;-37
2024/03/28 00:25:58;;;;;;;5.38;4.32;;;11.80;77.60;;;;;;4950547;28;20034;-37
2024/03/28 00:28:24;;;;;;;5.70;4.57;;;11.90;77.70;;;;;;4978578;28;20027;-37
2024/03/28 00:30:51;;;;;;;6.00;4.85;;;11.80;77.60;;;;;;4971203;28;20067;-38
2024/03/28 00:33:17;;;;;;;5.53;4.57;;;11.80;77.60;;;;;;4971244;28;20039;-35
2024/03/28 00:35:48;;;;;;;5.45;4.50;;;11.80;77.60;;;;;;4968046;28;20493;-37
2024/03/28 00:38:15;;;;;;;5.22;4.28;;;11.80;77.70;;;;;;4970291;28;20074;-38
2024/03/28 00:40:47;;;;;;;5.95;4.43;;;11.80;77.70;;;;;;4967003;28;20472;-38
2024/03/28 00:43:13;;;;;;;5.50;4.40;;;11.80;77.70;;;;;;4971520;28;20089;-35
2024/03/28 00:45:39;;;;;;;5.88;4.68;;;11.80;77.70;;;;;;4963556;28;20404;-34
2024/03/28 00:48:05;;;;;;;5.40;4.28;;;11.80;77.70;;;;;;4975675;28;20027;-38
2024/03/28 00:50:32;;;;;;;5.50;4.30;;;11.70;77.60;;;;;;4978247;28;20026;-38
2024/03/28 00:52:58;;;;;;;5.50;4.70;;;11.70;77.60;;;;;;4975648;28;20025;-39
2024/03/28 00:55:24;;;;;;;6.20;4.78;;;11.70;77.60;;;;;;4967870;28;20102;-38
2024/03/28 00:57:51;;;;;;;5.22;4.38;;;11.70;77.70;;;;;;4972749;28;20091;-39
2024/03/28 01:00:17;;;;;;;5.70;4.35;;;11.70;77.70;;;;;;4984809;28;20043;-38
2024/03/28 01:02:43;;;;;;;6.07;4.50;;;11.70;77.70;;;;;;4970103;28;20039;-38
2024/03/28 01:05:09;;;;;;;6.88;4.50;;;11.70;77.70;;;;;;4980959;28;20030;-37
2024/03/28 01:07:35;;;;;;;6.57;5.28;;;11.70;77.70;;;;;;4973722;28;20079;-38
2024/03/28 01:10:01;;;;;;;5.45;4.65;;;11.70;77.70;;;;;;4974479;28;20113;-38
2024/03/28 01:12:27;;;;;;;5.50;4.50;;;11.60;77.60;;;;;;4973415;28;20515;-37
2024/03/28 01:14:52;;;;;;;5.75;4.65;;;11.70;77.70;;;;;;4977533;28;20038;-38
2024/03/28 01:17:18;;;;;;;6.47;5.05;;;11.70;77.70;;;;;;4974687;28;20061;-38
2024/03/28 01:19:44;;;;;;;6.40;4.63;;;11.70;77.70;;;;;;4974978;28;20057;-37
2024/03/28 01:22:10;;;;;;;5.40;4.50;;;11.70;77.70;;;;;;4974448;28;20029;-36
2024/03/28 01:24:35;;;;;;;6.47;5.22;;;11.70;77.80;;;;;;4972925;28;20035;-37
2024/03/28 01:27:01;;;;;;;6.45;5.35;;;11.60;77.80;;;;;;4978888;28;20031;-38
2024/03/28 01:29:27;;;;;;;6.05;4.68;;;11.60;77.80;;;;;;4970908;28;20041;-38
2024/03/28 01:31:52;;;;;;;5.68;4.68;;;11.70;77.90;;;;;;4954598;28;20869;-35
2024/03/28 01:34:18;;;;;;;5.82;5.07;;;11.60;77.80;;;;;;4972693;28;20042;-34
2024/03/28 01:36:44;;;;;;;5.20;4.50;;;11.70;77.90;;;;;;4976680;28;20376;-38
2024/03/28 01:39:09;;;;;;;5.53;4.55;;;11.60;77.80;;;;;;4957500;28;20078;-37
2024/03/28 01:41:35;;;;;;;6.35;4.80;;;11.60;77.80;;;;;;4971365;28;20062;-39
2024/03/28 01:44:01;;;;;;;5.93;4.68;;;11.60;77.90;;;;;;4975867;28;20062;-34
2024/03/28 01:46:27;;;;;;;6.30;5.13;;;11.60;77.90;;;;;;4969151;28;20019;-39
2024/03/28 01:48:54;;;;;;;5.97;4.85;;;11.60;77.90;;;;;;4973597;28;20027;-38
2024/03/28 01:51:21;;;;;;;6.32;5.13;;;11.60;77.90;;;;;;4972964;28;20046;-39
2024/03/28 01:53:48;;;;;;;5.75;4.82;;;11.60;77.90;;;;;;4975936;28;20023;-38
2024/03/28 01:56:15;;;;;;;6.10;4.82;;;11.60;77.90;;;;;;4970833;28;20030;-39
2024/03/28 01:58:41;;;;;;;5.65;4.85;;;11.60;77.90;;;;;;4974943;28;20031;-37
2024/03/28 02:01:07;;;;;;;6.72;5.15;;;11.60;77.90;;;;;;4975963;28;20038;-37
2024/03/28 02:03:33;;;;;;;6.55;4.70;;;11.60;77.90;;;;;;4974596;28;20031;-37
2024/03/28 02:05:59;;;;;;;6.15;4.97;;;11.60;78.00;;;;;;4973351;28;20384;-37
2024/03/28 02:08:28;;;;;;;6.25;5.25;;;11.60;78.00;;;;;;4972894;28;20084;-39
2024/03/28 02:10:56;;;;;;;5.90;4.78;;;11.60;78.00;;;;;;4972683;28;20645;-37
2024/03/28 02:13:21;;;;;;;6.28;5.20;;;11.60;78.00;;;;;;4972598;28;20066;-39
2024/03/28 02:15:47;;;;;;;6.93;4.57;;;11.50;77.90;;;;;;4971373;28;20034;-37
2024/03/28 02:18:13;;;;;;;6.05;4.57;;;11.50;77.90;;;;;;4977967;28;20030;-40
2024/03/28 02:20:39;;;;;;;6.78;5.22;;;11.50;77.90;;;;;;4948782;28;20029;-40
2024/03/28 02:23:04;;;;;;;6.05;4.90;;;11.50;77.90;;;;;;4972302;28;20047;-38
2024/03/28 02:25:30;;;;;;;5.63;4.63;;;11.50;77.90;;;;;;4953216;28;20042;-40
2024/03/28 02:27:56;;;;;;;6.30;4.93;;;11.50;77.90;;;;;;4973939;28;20126;-37
2024/03/28 02:30:21;;;;;;;6.22;5.40;;;11.50;77.90;;;;;;4983543;28;20514;-38
2024/03/28 02:32:47;;;;;;;6.00;5.03;;;11.50;77.90;;;;;;4972709;28;20027;-39
2024/03/28 02:35:13;;;;;;;5.82;5.15;;;11.50;77.90;;;;;;4972870;28;20070;-39
2024/03/28 02:37:38;;;;;;;5.97;4.88;;;11.50;78.00;;;;;;4969879;28;20316;-39
2024/03/28 02:40:05;;;;;;;7.05;5.68;;;11.50;78.00;;;;;;4978839;28;20087;-38
2024/03/28 02:42:30;;;;;;;6.63;4.85;;;11.50;78.00;;;;;;4963642;28;20042;-36
2024/03/28 02:44:56;;;;;;;7.20;4.63;;;11.50;78.00;;;;;;4976347;28;20030;-36
2024/03/28 02:47:22;;;;;;;6.18;4.90;;;11.50;78.00;;;;;;4969581;28;20137;-39
2024/03/28 02:49:48;;;;;;;6.38;5.10;;;11.50;78.00;;;;;;4977481;28;20022;-38
2024/03/28 02:52:14;;;;;;;6.32;4.97;;;11.50;78.00;;;;;;4968389;28;20435;-38
2024/03/28 02:54:39;;;;;;;6.20;5.15;;;11.50;78.00;;;;;;4960676;28;20031;-35
2024/03/28 02:57:05;;;;;;;6.55;5.03;;;11.50;78.00;;;;;;4969852;28;20042;-38
2024/03/28 02:59:32;;;;;;;5.75;4.57;;;11.50;78.00;;;;;;4979438;28;20112;-37
2024/03/28 03:01:58;;;;;;;6.03;4.63;;;11.40;77.90;;;;;;4974766;28;20031;-39
2024/03/28 03:04:24;;;;;;;6.35;4.93;;;11.40;77.90;;;;;;4973071;28;20100;-37
2024/03/28 03:06:50;;;;;;;6.22;4.97;;;11.40;78.00;;;;;;4971369;28;20059;-38
2024/03/28 03:09:16;;;;;;;6.00;4.75;;;11.40;78.00;;;;;;4971304;28;20019;-38
2024/03/28 03:11:43;;;;;;;5.68;4.57;;;11.40;77.90;;;;;;4973907;28;20067;-37
2024/03/28 03:14:08;;;;;;;6.40;5.05;;;11.40;77.90;;;;;;4973871;28;21813;-35
2024/03/28 03:16:35;;;;;;;6.70;4.50;;;11.40;77.90;;;;;;4970671;28;20023;-35
2024/03/28 03:19:01;;;;;;;5.82;4.80;;;11.40;78.00;;;;;;4978049;28;20018;-38
2024/03/28 03:21:26;;;;;;;5.10;4.20;;;11.40;78.00;;;;;;4972397;28;20027;-35
2024/03/28 03:24:00;;;;;;;6.25;4.97;;;11.40;78.00;;;;;;4971160;28;20051;-34
2024/03/28 03:26:30;;;;;;;5.53;4.43;;;11.40;77.90;;;;;;4975848;28;20012;-38
2024/03/28 03:34:46;;;;;;;5.45;4.40;;;11.40;78.00;;;;;;4925658;29;20059;-37
2024/03/28 03:37:22;;;;;;;5.80;4.38;;;11.40;78.00;;;;;;4946505;28;20043;-41
2024/03/28 03:40:00;;;;;;;5.13;4.35;;;11.40;78.00;;;;;;4980406;28;20488;-39
2024/03/28 03:42:26;;;;;;;5.43;4.50;;;11.40;78.00;;;;;;4979747;28;20118;-40
2024/03/28 03:44:52;;;;;;;5.50;4.40;;;11.40;78.00;;;;;;4981640;28;20058;-40
2024/03/28 03:47:18;;;;;;;5.72;4.47;;;11.40;78.00;;;;;;4974188;28;20419;-38
2024/03/28 03:49:44;;;;;;;5.63;4.47;;;11.40;78.00;;;;;;4973598;28;20050;-40
2024/03/28 03:52:11;;;;;;;4.78;4.10;;;11.40;78.00;;;;;;4982910;28;20035;-41
2024/03/28 03:54:37;;;;;;;4.97;3.90;;;11.40;78.00;;;;;;4971393;28;20138;-41
2024/03/28 03:57:03;;;;;;;4.75;3.90;;;11.30;77.90;;;;;;4978405;28;20555;-41
2024/03/28 03:59:29;;;;;;;5.90;4.10;;;11.30;77.90;;;;;;4985128;28;20026;-40
2024/03/28 04:01:55;;;;;;;5.30;4.15;;;11.30;77.90;;;;;;4977254;28;20034;-41
2024/03/28 04:04:21;;;;;;;5.07;4.20;;;11.30;77.90;;;;;;4974982;28;20290;-37
2024/03/28 04:06:47;;;;;;;4.85;4.00;;;11.30;78.00;;;;;;4981741;28;20031;-39
2024/03/28 04:09:13;;;;;;;5.32;4.45;;;11.30;77.90;;;;;;4974896;28;20030;-37
2024/03/28 04:11:39;;;;;;;5.43;4.38;;;11.30;77.90;;;;;;4982057;28;20062;-38
2024/03/28 04:14:05;;;;;;;5.40;4.03;;;11.30;77.90;;;;;;4960897;28;20412;-35
2024/03/28 04:16:31;;;;;;;4.65;3.65;;;11.30;77.90;;;;;;4978973;28;20027;-38
2024/03/28 04:18:56;;;;;;;5.07;4.28;;;11.30;77.90;;;;;;4954996;28;20034;-39
2024/03/28 04:21:23;;;;;;;5.53;4.13;;;11.30;77.90;;;;;;4971065;28;20045;-39
2024/03/28 04:23:48;;;;;;;5.18;4.13;;;11.30;77.90;;;;;;4965204;28;20043;-36
2024/03/28 04:26:14;;;;;;;4.50;3.80;;;11.30;77.90;;;;;;4964569;28;20073;-35
2024/03/28 04:28:40;;;;;;;5.20;4.10;;;11.30;78.00;;;;;;4979896;28;20387;-37
2024/03/28 04:31:05;;;;;;;5.13;4.15;;;11.30;77.90;;;;;;4981027;28;20019;-38
2024/03/28 04:33:32;;;;;;;5.13;4.20;;;11.30;77.90;;;;;;4949132;28;20038;-34
2024/03/28 04:35:58;;;;;;;6.65;3.85;;;11.30;77.90;;;;;;4973245;28;20026;-35
2024/03/28 04:38:23;;;;;;;5.10;4.00;;;11.30;77.90;;;;;;4972745;28;20051;-35
2024/03/28 04:40:50;;;;;;;5.45;4.28;;;11.30;77.90;;;;;;4976958;28;20031;-35
2024/03/28 04:43:16;;;;;;;4.88;3.72;;;11.30;77.90;;;;;;4976226;28;20066;-35
2024/03/28 04:45:41;;;;;;;5.32;4.18;;;11.30;77.90;;;;;;4972711;28;20023;-35
2024/03/28 04:48:07;;;;;;;5.35;4.00;;;11.30;77.90;;;;;;4975966;28;20110;-36
2024/03/28 04:50:34;;;;;;;4.97;3.85;;;11.20;77.90;;;;;;4971939;28;20031;-35
2024/03/28 04:53:00;;;;;;;5.28;4.22;;;11.20;77.90;;;;;;4976738;28;20081;-35
2024/03/28 04:55:26;;;;;;;5.88;4.10;;;11.20;77.90;;;;;;4974675;28;20034;-35
2024/03/28 04:57:51;;;;;;;4.85;3.80;;;11.20;77.90;;;;;;4972937;28;20026;-38
2024/03/28 05:00:17;;;;;;;5.65;4.22;;;11.20;77.90;;;;;;4971136;28;20042;-34
2024/03/28 05:02:43;;;;;;;5.18;4.13;;;11.20;77.90;;;;;;4978458;28;20038;-36
2024/03/28 05:05:09;;;;;;;5.30;4.20;;;11.20;77.90;;;;;;4975205;28;20450;-38
2024/03/28 05:07:35;;;;;;;5.68;4.45;;;11.20;77.80;;;;;;4971580;28;20022;-35
2024/03/28 05:10:01;;;;;;;6.63;4.45;;;11.20;77.80;;;;;;4976032;28;20109;-38
2024/03/28 05:12:27;;;;;;;5.50;4.57;;;11.10;77.80;;;;;;4977979;28;20022;-37
2024/03/28 05:14:54;;;;;;;6.20;4.75;;;11.10;77.80;;;;;;4976749;28;20062;-37
2024/03/28 05:17:20;;;;;;;6.35;5.18;;;11.10;77.80;;;;;;4975530;28;20030;-39
2024/03/28 05:19:45;;;;;;;6.38;4.72;;;11.10;77.80;;;;;;4976418;28;20027;-35
2024/03/28 05:22:11;;;;;;;6.72;5.03;;;11.10;77.80;;;;;;4977215;28;20057;-35
2024/03/28 05:24:37;;;;;;;6.32;5.13;;;11.10;77.80;;;;;;4973059;28;22084;-37
2024/03/28 05:27:02;;;;;;;6.10;4.80;;;11.10;77.90;;;;;;4975016;28;20074;-37
2024/03/28 05:29:29;;;;;;;6.22;4.88;;;11.10;77.80;;;;;;4973539;28;20094;-33
2024/03/28 05:31:55;;;;;;;6.50;5.30;;;11.10;77.90;;;;;;4971644;28;20026;-38
2024/03/28 05:34:21;;;;;;;6.45;5.20;;;11.00;77.80;;;;;;4974514;28;20035;-39
2024/03/28 05:36:46;;;;;;;6.80;5.03;;;11.00;78.20;;;;;;4972135;28;20042;-38
2024/03/28 05:39:14;;;;;;;6.70;5.55;;;11.00;77.80;;;;;;4975357;28;20031;-40
2024/03/28 05:41:40;;;;;;;6.53;5.30;;;11.00;77.90;;;;;;4977095;28;20453;-39
2024/03/28 05:44:06;;;;;;;7.28;5.43;;;11.00;77.90;;;;;;4971001;28;20038;-40
2024/03/28 05:46:32;;;;;;;6.50;5.43;;;11.00;77.90;;;;;;4979451;28;20502;-40
2024/03/28 05:48:58;;;;;;;6.60;5.20;;;11.00;77.90;;;;;;4977467;28;20030;-38
2024/03/28 05:51:23;;;;;;;7.20;5.70;;;11.00;77.90;;;;;;4986130;28;20090;-39
2024/03/28 05:53:49;;;;;;;6.15;5.18;;;11.00;77.90;;;;;;4974668;28;20094;-40
2024/03/28 05:56:15;;;;;;;6.60;5.20;;;10.90;77.90;;;;;;4976746;28;20031;-40
2024/03/28 05:58:41;;;;;;;6.82;5.18;;;10.90;77.90;;;;;;4973814;28;20116;-39
2024/03/28 06:01:07;;;;;;;6.15;5.28;;;10.90;77.90;;;;;;4953964;28;20027;-39
2024/03/28 06:03:33;;;;;;;7.03;5.57;;;10.90;77.90;;;;;;4973491;28;20062;-35
2024/03/28 06:05:58;;;;;;;6.78;5.50;;;10.90;77.90;;;;;;4971906;28;20026;-37
2024/03/28 06:08:24;;;;;;;5.97;4.80;;;10.90;77.90;;;;;;4973619;28;20023;-38
2024/03/28 06:10:50;;;;;;;5.85;4.68;;;10.80;77.90;;;;;;4978312;28;20542;-39
2024/03/28 06:13:17;;;;;;;6.60;4.85;;;10.80;77.90;;;;;;4974159;28;20027;-38
2024/03/28 06:15:43;;;;;;;5.88;4.88;;;10.80;77.90;;;;;;4963533;28;20895;-36
2024/03/28 06:18:11;;;;;;;6.13;5.10;;;10.80;77.90;;;;;;4967481;28;20035;-41
2024/03/28 06:20:37;;;;;;;6.82;4.80;;;10.80;77.90;;;;;;4978700;28;20062;-38
2024/03/28 06:23:03;;;;;;;5.90;4.95;;;10.80;77.90;;;;;;4970068;28;20062;-33
2024/03/28 06:25:29;;;;;;;6.60;5.32;;;10.80;77.90;;;;;;4973875;28;20027;-38
2024/03/28 06:27:55;;;;;;;6.50;4.95;;;10.80;77.90;;;;;;4971746;28;20090;-32
2024/03/28 06:30:26;;;;;;;6.75;5.10;;;10.80;78.00;;;;;;4981460;28;20085;-37
2024/03/28 06:32:55;;;;;;;6.07;5.10;;;10.80;78.00;;;;;;4969965;28;20027;-33
2024/03/28 06:35:22;;;;;;;6.75;5.05;;;10.80;78.00;;;;;;4978880;28;20091;-38
2024/03/28 06:37:48;;;;;;;6.18;4.82;;;10.80;78.00;;;;;;4975731;28;20031;-40
2024/03/28 06:40:15;;;;;;;7.10;5.15;;;10.80;78.00;;;;;;4970227;28;20030;-38
2024/03/28 06:42:41;;;;;;;5.80;4.78;;;10.80;78.00;;;;;;4963299;28;20031;-40
2024/03/28 06:45:08;;;;;;;6.53;5.00;;;10.80;78.00;;;;;;4980362;28;20030;-41
2024/03/28 06:47:34;;;;;;;5.30;4.25;;;10.80;78.00;;;;;;4980109;28;20034;-37
2024/03/28 06:50:00;;;;;;;6.18;4.88;;;10.80;78.00;;;;;;4982074;28;20065;-40
2024/03/28 06:52:26;;;;;;;5.93;4.75;;;10.80;78.00;;;;;;4974915;28;20062;-41
2024/03/28 06:54:52;;;;;;;7.00;4.80;;;10.80;78.00;;;;;;4974932;28;20041;-39
2024/03/28 06:57:18;;;;;;;6.05;4.70;;;10.80;78.00;;;;;;4978909;28;20031;-39
2024/03/28 06:59:44;;;;;;;5.80;4.57;;;10.80;78.00;;;;;;4981553;28;20030;-40
2024/03/28 07:02:09;;;;;;;6.00;5.15;;;10.80;78.10;;;;;;4975302;28;20047;-40
2024/03/28 07:04:35;;;;;;;5.95;4.50;;;10.80;78.10;;;;;;4966001;28;20094;-41
2024/03/28 07:07:01;;;;;;;6.88;4.65;;;10.80;78.00;;;;;;4960328;28;20022;-33
2024/03/28 07:09:26;;;;;;;5.75;4.40;;;10.80;78.00;;;;;;4972564;28;20124;-38
2024/03/28 07:11:53;;;;;;;5.55;4.35;;;10.80;78.10;;;;;;4967687;28;20029;-36
2024/03/28 07:14:19;;;;;;;5.93;4.82;;;10.80;78.00;;;;;;4976138;28;20035;-34
2024/03/28 07:16:45;;;;;;;5.90;4.70;;;10.80;78.00;;;;;;4963545;28;20088;-34
2024/03/28 07:19:11;;;;;;;5.95;4.57;;;10.80;78.10;;;;;;4972501;28;20039;-35
2024/03/28 07:21:37;;;;;;;6.40;4.68;;;10.80;78.00;;;;;;4981021;28;20027;-38
2024/03/28 07:24:04;;;;;;;6.65;4.68;;;10.80;78.00;;;;;;4962468;28;20424;-37
2024/03/28 07:26:30;;;;;;;6.53;4.78;;;10.80;78.00;;;;;;4972136;28;20045;-36
2024/03/28 07:28:57;;;;;;;4.95;4.15;;;10.80;78.00;;;;;;4970896;28;20058;-38
2024/03/28 07:31:22;;;;;;;6.10;4.35;;;10.80;78.00;;;;;;4979869;28;20027;-35
2024/03/28 07:33:49;;;;;;;5.82;4.55;;;10.80;78.00;;;;;;4968599;28;20043;-36
2024/03/28 07:36:15;;;;;;;5.45;4.18;;;10.90;78.00;;;;;;4977607;28;20022;-37
2024/03/28 07:38:43;;;;;;;6.13;4.60;;;10.90;78.00;;;;;;4972814;28;20066;-37
2024/03/28 07:41:09;;;;;;;5.97;4.18;;;10.90;78.10;;;;;;4968971;28;20032;-37
2024/03/28 07:43:35;;;;;;;6.55;4.00;;;10.90;78.00;;;;;;4977586;28;20034;-36
2024/03/28 07:46:04;;;;;;;5.15;4.00;;;10.90;78.00;;;;;;4972463;28;20061;-35
2024/03/28 07:48:33;;;;;;;5.45;4.35;;;11.00;78.10;;;;;;4977182;28;20055;-39
2024/03/28 07:51:02;;;;;;;5.40;4.28;;;10.90;78.00;;;;;;4968342;28;20118;-33
2024/03/28 07:53:30;;;;;;;5.32;4.28;;;11.00;78.10;;;;;;4962159;28;20023;-35
2024/03/28 07:55:55;;;;;;;5.32;4.00;;;11.00;78.20;;;;;;4959934;28;20043;-39
2024/03/28 07:58:22;;;;;;;5.32;4.25;;;11.00;78.20;;;;;;4969331;28;20027;-39
2024/03/28 08:00:48;;;;;;;5.63;4.13;;;11.00;78.10;;;;;;4980165;28;20079;-36
2024/03/28 08:03:15;;;;;;;5.07;4.03;;;11.10;78.10;;;;;;4969281;28;20067;-39
2024/03/28 08:05:43;;;;;;;5.25;3.85;;;11.10;78.10;;;;;;4966670;28;20043;-35
2024/03/28 08:08:09;;;;;;;4.93;3.80;;;11.10;78.00;;;;;;4964533;28;20074;-36
2024/03/28 08:10:36;;;;;;;5.18;4.05;;;11.10;78.00;;;;;;4967993;28;20040;-35
2024/03/28 08:13:02;;;;;;;4.93;3.83;;;11.10;78.00;;;;;;4979764;28;20027;-32
2024/03/28 08:15:30;;;;;;;5.05;3.72;;;11.20;78.00;;;;;;4978843;28;20073;-38
2024/03/28 08:17:55;;;;;;;4.97;3.80;;;11.20;78.00;;;;;;4982452;28;20042;-39
2024/03/28 08:20:21;;;;;;;5.20;3.80;;;11.20;78.00;;;;;;4989357;28;20034;-38
2024/03/28 08:22:51;;;;;;;4.63;3.50;;;11.20;78.00;;;;;;4982246;28;20086;-35
2024/03/28 08:25:16;;;;;;;4.75;3.70;;;11.30;78.00;;;;;;4972886;28;20091;-34
2024/03/28 08:27:42;;;;;;;4.57;3.60;;;11.30;77.90;;;;;;4982275;28;20031;-39
2024/03/28 08:30:08;;;;;;;4.47;3.55;;;11.30;77.90;;;;;;4987855;28;20026;-35
2024/03/28 08:32:34;;;;;;;4.70;3.60;;;11.30;77.90;;;;;;4973374;28;20030;-37
2024/03/28 08:35:02;;;;;;;5.15;3.58;;;11.30;77.90;;;;;;4973125;28;20019;-37
2024/03/28 08:37:28;;;;;;;5.15;3.28;;;11.40;78.00;;;;;;4977302;28;20451;-38
2024/03/28 08:39:53;;;;;;;3.85;3.08;;;11.40;77.90;;;;;;4985543;28;20179;-38
2024/03/28 08:42:19;;;;;;;5.03;3.60;;;11.40;77.90;;;;;;4975645;28;20098;-38
2024/03/28 08:44:46;;;;;;;4.43;3.42;;;11.40;78.00;;;;;;4968493;28;20046;-38
2024/03/28 08:47:15;;;;;;;5.35;3.65;;;11.40;77.90;;;;;;4980636;28;20027;-36
2024/03/28 08:49:41;;;;;;;4.65;3.35;;;11.40;77.90;;;;;;4982167;28;20039;-38
2024/03/28 08:52:07;;;;;;;3.78;3.10;;;11.40;77.90;;;;;;4978813;28;20090;-35
2024/03/28 08:54:32;;;;;;;4.40;3.30;;;11.40;77.90;;;;;;4971820;28;20168;-38
2024/03/28 08:56:58;;;;;;;5.32;3.50;;;11.50;78.00;;;;;;4981920;28;20034;-39
2024/03/28 08:59:24;;;;;;;4.05;3.08;;;11.50;77.90;;;;;;4984153;28;20019;-38
2024/03/28 09:01:50;;;;;;;4.53;3.33;;;11.50;77.90;;;;;;4983211;28;20493;-39
2024/03/28 09:04:19;;;;;;;4.22;3.10;;;11.50;77.90;;;;;;4973661;28;20040;-39
2024/03/28 09:06:49;;;;;;;4.18;3.28;;;11.50;77.90;;;;;;4979913;28;20054;-38
2024/03/28 09:09:15;;;;;;;4.32;2.80;;;11.50;77.90;;;;;;4970259;28;20038;-35
2024/03/28 09:11:42;;;;;;;3.97;2.80;;;11.50;77.90;;;;;;4965238;28;20058;-36
2024/03/28 09:14:07;;;;;;;3.65;2.83;;;11.50;77.90;;;;;;4981047;28;20030;-38
2024/03/28 09:16:36;;;;;;;4.20;2.97;;;11.50;77.90;;;;;;4978245;28;20042;-37
2024/03/28 09:19:02;;;;;;;3.22;2.70;;;11.50;77.90;;;;;;4978370;28;20045;-37
2024/03/28 09:21:28;;;;;;;3.30;2.50;;;11.60;77.90;;;;;;4984993;28;20026;-36
2024/03/28 09:23:55;;;;;;;3.95;2.72;;;11.60;77.90;;;;;;4971107;28;20074;-35
2024/03/28 09:26:21;;;;;;;4.15;2.95;;;11.60;77.90;;;;;;4980641;28;20022;-37
2024/03/28 09:28:53;;;;;;;3.47;2.85;;;11.60;77.90;;;;;;4970893;28;20035;-42
2024/03/28 09:31:19;;;;;;;3.40;2.63;;;11.70;78.00;;;;;;4979664;28;20061;-42
2024/03/28 09:33:45;;;;;;;3.13;2.58;;;11.60;77.90;;;;;;4980066;28;20019;-38
2024/03/28 09:36:13;;;;;;;3.35;2.58;;;11.60;77.90;;;;;;4988461;28;20046;-39
2024/03/28 09:38:50;;;;;;;2.90;2.53;;;11.70;77.90;;;;;;4984636;28;20077;-37
2024/03/28 09:41:30;;;;;;;3.42;2.70;;;11.70;78.00;;;;;;4977474;28;20037;-36
2024/03/28 09:44:12;;;;;;;4.05;2.67;;;11.70;77.90;;;;;;4971348;28;20035;-34
2024/03/28 09:46:41;;;;;;;3.15;2.40;;;11.70;77.90;;;;;;4970211;28;20019;-38
2024/03/28 09:49:08;;;;;;;2.97;2.42;;;11.70;77.90;;;;;;4972682;28;20090;-37
2024/03/28 09:51:38;;;;;;;3.35;2.67;;;11.70;77.90;;;;;;4992893;28;20454;-39
2024/03/28 09:54:05;;;;;;;3.08;2.58;;;11.70;77.90;;;;;;4974914;28;20030;-39
2024/03/28 09:56:32;;;;;;;3.42;2.50;;;11.80;77.90;;;;;;4972192;28;20045;-37
2024/03/28 09:58:58;;;;;;;3.15;2.60;;;11.70;77.90;;;;;;4977798;28;20078;-39
2024/03/28 10:01:25;;;;;;;3.13;2.80;;;11.80;77.90;;;;;;4982462;28;20078;-39
2024/03/28 10:04:05;;;;;;;3.88;2.78;;;11.80;77.90;;;;;;4976910;28;20042;-38
2024/03/28 10:06:31;;;;;;;3.70;2.58;;;11.80;77.90;;;;;;4973654;28;20044;-37
2024/03/28 10:08:59;;;;;;;3.15;2.70;;;11.80;77.80;;;;;;4980606;28;20320;-39
2024/03/28 10:11:25;;;;;;;2.38;2.15;;;11.80;77.90;;;;;;4967008;28;20070;-37
2024/03/28 10:13:51;;;;;;;2.92;2.38;;;11.90;77.90;;;;;;4967252;28;20022;-39
2024/03/28 10:16:22;;;;;;;3.03;2.50;;;11.90;77.90;;;;;;4979384;28;20029;-39
2024/03/28 10:18:53;;;;;;;3.00;2.50;;;11.90;77.80;;;;;;4980188;28;20037;-33
2024/03/28 10:21:19;;;;;;;2.97;2.10;;;11.90;77.90;;;;;;4954489;28;20023;-38
2024/03/28 10:23:45;;;;;;;3.47;2.35;;;11.90;77.80;;;;;;4961283;28;20046;-39
2024/03/28 10:26:15;;;;;;;4.28;2.55;;;11.90;77.80;;;;;;4973098;28;20034;-36
2024/03/28 10:28:44;;;;;;;3.45;2.55;;;11.90;77.80;;;;;;4978184;28;20031;-37
2024/03/28 10:31:10;;;;;;;2.67;2.30;;;11.90;77.80;;;;;;4980395;28;20032;-38
2024/03/28 10:33:42;;;;;;;2.58;2.20;;;11.90;77.80;;;;;;4971819;28;20033;-34
2024/03/28 10:36:08;;;;;;;2.40;2.10;;;11.90;77.80;;;;;;4980789;28;20031;-36
2024/03/28 10:38:34;;;;;;;2.72;2.20;;;11.90;78.00;;;;;;4975614;28;20045;-38
2024/03/28 10:41:00;;;;;;;3.28;2.75;;;11.90;77.80;;;;;;4979710;28;20048;-34
2024/03/28 10:43:27;;;;;;;3.15;2.38;;;12.00;77.80;;;;;;4971384;28;20051;-38
2024/03/28 10:45:59;;;;;;;3.10;2.13;;;12.00;77.80;;;;;;4971868;28;20244;-39
2024/03/28 10:48:26;;;;;;;2.97;2.05;;;12.00;77.80;;;;;;4977429;28;20023;-38
2024/03/28 10:51:27;;;;;;;3.83;2.20;;;12.00;77.80;;;;;;4977749;28;20031;-35
2024/03/28 10:54:18;;;;;;;2.85;1.90;;;12.00;77.80;;;;;;4970321;28;20031;-39
2024/03/28 10:56:46;;;;;;;2.88;1.90;;;12.00;77.80;;;;;;4972351;28;20039;-38
2024/03/28 10:59:14;;;;;;;2.33;1.85;;;12.00;77.70;;;;;;4974562;28;20029;-37
2024/03/28 11:01:41;;;;;;;2.33;1.92;;;12.10;77.80;;;;;;4968132;28;20106;-35
2024/03/28 11:04:11;;;;;;;2.67;2.20;;;12.00;77.70;;;;;;4968039;28;20098;-37
2024/03/28 11:06:37;;;;;;;2.25;2.05;;;12.00;77.70;;;;;;4977167;28;20153;-35
2024/03/28 11:09:03;;;;;;;2.78;1.85;;;12.00;77.70;;;;;;4977094;28;20115;-39
2024/03/28 11:11:30;;;;;;;2.80;2.15;;;12.00;77.80;;;;;;4977063;28;20078;-36
2024/03/28 11:13:57;;;;;;;2.67;1.90;;;12.00;77.70;;;;;;4975291;28;20110;-36
2024/03/28 11:16:24;;;;;;;2.20;2.00;;;12.10;77.80;;;;;;4974242;28;20059;-36
2024/03/28 11:18:50;;;;;;;2.35;1.92;;;12.10;77.80;;;;;;4979774;28;20019;-38
2024/03/28 11:21:29;;;;;;;2.35;1.90;;;12.10;77.80;;;;;;4967304;28;20103;-39
2024/03/28 11:23:56;;;;;;;1.95;1.75;;;12.10;77.80;;;;;;4977665;28;20035;-39
2024/03/28 11:26:23;;;;;;;1.75;1.65;;;12.10;77.80;;;;;;4967384;28;20038;-36
2024/03/28 11:29:00;;;;;;;2.03;1.83;;;12.10;77.80;;;;;;4960728;28;20086;-41
2024/03/28 11:31:25;;;;;;;1.98;1.80;;;12.20;77.80;;;;;;4977484;28;20059;-40
2024/03/28 11:33:58;;;;;;;2.00;1.80;;;12.10;77.80;;;;;;4974890;28;20031;-40
2024/03/28 11:36:28;;;;;;;1.83;1.67;;;12.20;78.40;;;;;;4969975;28;20105;-40
2024/03/28 11:38:54;;;;;;;2.13;1.90;;;12.20;77.80;;;;;;4978182;28;20456;-40
2024/03/28 11:41:24;;;;;;;2.78;2.15;;;12.20;77.80;;;;;;4980292;28;20387;-40
2024/03/28 11:43:54;;;;;;;2.20;1.92;;;12.20;77.80;;;;;;4974134;28;20042;-40
2024/03/28 11:46:23;;;;;;;2.20;2.00;;;12.20;77.80;;;;;;4971476;28;20023;-39
2024/03/28 11:48:55;;;;;;;2.95;2.30;;;12.20;77.80;;;;;;4983579;28;20058;-39
2024/03/28 11:51:22;;;;;;;2.67;2.20;;;12.30;77.80;;;;;;4989241;28;20047;-41
2024/03/28 11:53:49;;;;;;;3.05;2.00;;;12.20;77.70;;;;;;4977898;28;20031;-40
2024/03/28 11:56:18;;;;;;;2.70;2.05;;;12.20;77.70;;;;;;4977447;28;20031;-33
2024/03/28 11:58:44;;;;;;;2.63;2.30;;;12.30;77.70;;;;;;4982421;28;20610;-35
2024/03/28 12:01:10;;;;;;;4.40;2.30;;;12.30;77.70;;;;;;4984109;28;20057;-37
2024/03/28 12:03:36;;;;;;;2.83;2.30;;;12.30;77.70;;;;;;4981809;28;20476;-36
2024/03/28 12:06:02;;;;;;;2.63;2.30;;;12.30;77.70;;;;;;4983670;28;20019;-37
2024/03/28 12:08:29;;;;;;;4.35;2.70;;;12.40;77.70;;;;;;4969349;28;20030;-32
2024/03/28 12:11:06;;;;;;;3.33;2.90;;;12.40;77.70;;;;;;4959376;28;20385;-37
2024/03/28 12:13:33;;;;;;;2.95;2.60;;;12.40;77.80;;;;;;4974421;28;20044;-34
2024/03/28 12:16:01;;;;;;;4.07;2.72;;;12.40;77.70;;;;;;4960975;28;20023;-34
2024/03/28 12:18:29;;;;;;;4.07;2.75;;;12.40;77.70;;;;;;4964373;28;20054;-35
2024/03/28 12:21:02;;;;;;;3.13;2.83;;;12.50;77.70;;;;;;4963672;28;20066;-33
2024/03/28 12:23:29;;;;;;;4.13;2.97;;;12.50;77.70;;;;;;4960807;28;20043;-38
2024/03/28 12:25:56;;;;;;;4.28;2.97;;;12.50;77.70;;;;;;4950304;28;20039;-36
2024/03/28 12:28:23;;;;;;;4.10;3.10;;;12.50;77.60;;;;;;4957615;28;20032;-37
2024/03/28 12:30:54;;;;;;;3.53;2.95;;;12.50;77.60;;;;;;4961924;28;20023;-36
2024/03/28 12:33:21;;;;;;;4.15;3.10;;;12.60;77.60;;;;;;4958764;28;20031;-37
2024/03/28 12:35:52;;;;;;;4.80;3.15;;;12.60;77.60;;;;;;4955662;28;20118;-36
2024/03/28 12:38:21;;;;;;;3.95;3.20;;;12.60;77.60;;;;;;4956467;28;20039;-38
2024/03/28 12:40:48;;;;;;;3.80;3.20;;;12.70;77.60;;;;;;4957919;28;20032;-37
2024/03/28 12:43:24;;;;;;;4.60;3.20;;;12.70;77.50;;;;;;4962835;28;20103;-39
2024/03/28 12:46:03;;;;;;;4.95;3.38;;;12.70;77.50;;;;;;4961345;28;20055;-37
2024/03/28 12:48:29;;;;;;;3.65;3.08;;;12.80;77.50;;;;;;4953952;28;20057;-37
2024/03/28 12:50:57;;;;;;;4.30;3.28;;;12.80;77.50;;;;;;4969828;28;20042;-38
2024/03/28 12:53:22;;;;;;;4.97;3.33;;;12.80;77.40;;;;;;4950815;28;20036;-38